Time;durP1;ratioP1;P1;durP2;ratioP2;P2;SDS_P1;SDS_P2;PMS_P1;PMS_P2;Temp;Humidity;BMP_temperature;BMP_pressure;BME280_temperature;BME280_humidity;BME280_pressure;Samples;Min_cycle;Max_cycle;Signal;HPM_P1;HPM_P2
2021/12/09 00:01:47;;;;;;;8.10;7.43;;;;;;;3.09;93.06;93888.31;4377082;32;20351;-61
2021/12/09 00:04:16;;;;;;;7.77;7.17;;;;;;;2.97;93.24;93901.03;4380466;32;20299;-61
2021/12/09 00:06:44;;;;;;;7.37;6.77;;;;;;;3.16;92.48;93890.59;4386202;32;20364;-61
2021/12/09 00:09:14;;;;;;;7.30;6.70;;;;;;;2.98;93.20;93908.63;4379754;32;20276;-61
2021/12/09 00:11:45;;;;;;;7.30;6.70;;;;;;;3.03;93.14;93907.78;4389095;32;20276;-61
2021/12/09 00:14:15;;;;;;;8.30;7.50;;;;;;;3.08;93.21;93902.47;4384026;32;20284;-61
2021/12/09 00:16:41;;;;;;;7.27;6.67;;;;;;;3.07;93.03;93906.16;4381699;32;20280;-61
2021/12/09 00:19:06;;;;;;;7.47;6.87;;;;;;;2.97;93.04;93904.44;4373167;32;20303;-61
2021/12/09 00:21:33;;;;;;;6.70;6.20;;;;;;;2.99;93.44;93899.69;4382321;32;20237;-61
2021/12/09 00:23:58;;;;;;;7.10;6.50;;;;;;;3.12;93.20;93889.59;4382902;32;20181;-61
2021/12/09 00:26:24;;;;;;;7.43;6.83;;;;;;;2.97;93.44;93901.81;4386918;32;20299;-61
2021/12/09 00:28:49;;;;;;;6.90;6.40;;;;;;;3.06;93.65;93886.25;4381830;32;20221;-61
2021/12/09 00:31:17;;;;;;;6.93;6.30;;;;;;;3.23;93.12;93877.91;4388311;32;20203;-61
2021/12/09 00:33:44;;;;;;;6.73;6.23;;;;;;;3.03;93.43;93889.44;4385205;32;20216;-61
2021/12/09 00:36:11;;;;;;;6.90;6.40;;;;;;;2.97;93.77;93893.97;4386469;32;20330;-61
2021/12/09 00:38:39;;;;;;;7.83;7.23;;;;;;;2.96;93.68;93894.22;4385397;32;20326;-61
2021/12/09 00:41:11;;;;;;;6.83;6.37;;;;;;;3.17;93.34;93897.38;4386030;32;20325;-59
2021/12/09 00:43:36;;;;;;;7.20;6.70;;;;;;;3.03;93.90;93911.19;4378409;32;20276;-59
2021/12/09 00:46:02;;;;;;;7.03;6.47;;;;;;;3.03;93.92;93916.41;4381857;32;20339;-59
2021/12/09 00:48:28;;;;;;;7.00;6.40;;;;;;;3.17;93.32;93913.09;4381594;32;20188;-60
2021/12/09 00:50:55;;;;;;;7.40;6.80;;;;;;;3.12;93.77;93916.56;4384933;32;20326;-59
2021/12/09 00:53:20;;;;;;;7.23;6.53;;;;;;;3.08;93.60;93918.97;4387316;32;20239;-59
2021/12/09 00:55:46;;;;;;;6.60;6.10;;;;;;;2.87;94.53;93917.66;4388753;32;20361;-59
2021/12/09 00:58:12;;;;;;;7.57;6.87;;;;;;;3.01;93.78;93915.91;4383838;32;20236;-59
2021/12/09 01:00:37;;;;;;;7.00;6.40;;;;;;;3.05;94.14;93918.75;4386398;32;20197;-59
2021/12/09 01:03:03;;;;;;;7.80;7.20;;;;;;;3.12;93.75;93913.94;4382634;32;20200;-59
2021/12/09 01:05:28;;;;;;;6.93;6.43;;;;;;;3.17;93.58;93911.25;4390135;32;20284;-59
2021/12/09 01:07:55;;;;;;;7.23;6.60;;;;;;;3.06;93.54;93908.00;4382852;32;20256;-59
2021/12/09 01:10:21;;;;;;;7.13;6.30;;;;;;;2.92;94.41;93914.97;4389551;32;20180;-60
2021/12/09 01:12:46;;;;;;;6.37;5.97;;;;;;;3.04;94.28;93917.97;4383216;32;20371;-59
2021/12/09 01:15:15;;;;;;;6.57;6.07;;;;;;;2.92;94.47;93933.28;4381055;32;20243;-59
2021/12/09 01:17:40;;;;;;;6.33;5.93;;;;;;;2.90;94.35;93947.75;4386990;32;20192;-60
2021/12/09 01:20:09;;;;;;;6.83;6.33;;;;;;;2.91;94.22;93944.06;4385678;32;20297;-59
2021/12/09 01:22:39;;;;;;;6.30;5.90;;;;;;;3.11;93.97;93938.59;4383453;32;20185;-60
2021/12/09 01:25:06;;;;;;;5.63;5.33;;;;;;;3.01;93.67;93934.25;4381812;32;20280;-59
2021/12/09 01:27:35;;;;;;;5.83;5.43;;;;;;;3.09;93.81;93919.75;4390950;32;20316;-59
2021/12/09 01:30:07;;;;;;;6.47;5.97;;;;;;;3.10;93.50;93916.88;4390236;32;20291;-60
2021/12/09 01:32:33;;;;;;;5.60;5.20;;;;;;;2.76;94.63;93903.87;4397226;32;20284;-59
2021/12/09 01:34:58;;;;;;;5.50;5.20;;;;;;;2.84;94.73;93901.72;4390943;32;20315;-60
2021/12/09 01:37:23;;;;;;;5.17;4.77;;;;;;;2.86;94.36;93912.69;4389439;32;20217;-59
2021/12/09 01:39:51;;;;;;;5.40;5.10;;;;;;;2.95;94.40;93908.38;4392332;32;20241;-60
2021/12/09 01:42:17;;;;;;;4.97;4.67;;;;;;;3.03;93.84;93916.41;4386396;32;20270;-59
2021/12/09 01:44:43;;;;;;;5.20;4.80;;;;;;;2.85;94.09;93924.22;4385856;32;20284;-59
2021/12/09 01:47:08;;;;;;;4.93;4.60;;;;;;;2.86;94.65;93933.66;4378007;32;20194;-60
2021/12/09 01:49:34;;;;;;;4.33;4.13;;;;;;;3.00;94.43;93940.53;4379797;32;20292;-59
2021/12/09 01:51:59;;;;;;;4.27;4.07;;;;;;;2.85;94.46;93948.59;4384484;32;20215;-60
2021/12/09 01:54:25;;;;;;;4.33;4.07;;;;;;;2.62;94.98;93950.13;4386022;32;20199;-60
2021/12/09 01:56:50;;;;;;;4.60;4.30;;;;;;;2.78;94.90;93952.56;4387367;32;20203;-59
2021/12/09 01:59:16;;;;;;;3.77;3.53;;;;;;;2.83;94.65;93957.78;4383325;32;20252;-59
2021/12/09 02:01:42;;;;;;;4.17;3.97;;;;;;;2.95;94.38;93956.31;4389623;32;20266;-60
2021/12/09 02:04:09;;;;;;;4.00;3.80;;;;;;;2.93;94.16;93962.88;4392653;32;20288;-60
2021/12/09 02:06:40;;;;;;;3.77;3.57;;;;;;;2.91;94.24;93960.53;4387209;32;20192;-60
2021/12/09 02:09:10;;;;;;;3.90;3.70;;;;;;;2.85;94.10;93959.06;4385174;32;20364;-60
2021/12/09 02:11:35;;;;;;;4.17;3.97;;;;;;;2.87;94.28;93964.00;4384701;32;20319;-60
2021/12/09 02:14:03;;;;;;;4.00;3.80;;;;;;;2.79;94.80;93964.63;4385502;32;20292;-60
2021/12/09 02:16:28;;;;;;;3.87;3.67;;;;;;;2.83;94.39;93963.00;4382823;32;20196;-60
2021/12/09 02:18:54;;;;;;;3.93;3.63;;;;;;;2.80;94.49;93963.56;4387872;32;20272;-60
2021/12/09 02:21:28;;;;;;;3.80;3.60;;;;;;;2.75;94.94;93959.16;4382199;32;20208;-60
2021/12/09 02:23:59;;;;;;;4.03;3.83;;;;;;;2.74;95.00;93960.19;4382856;32;20202;-60
2021/12/09 02:26:30;;;;;;;3.83;3.63;;;;;;;2.68;95.00;93961.34;4380655;32;20285;-60
2021/12/09 02:28:57;;;;;;;3.40;3.20;;;;;;;2.70;95.50;93962.59;4385077;32;20307;-59
2021/12/09 02:31:24;;;;;;;3.50;3.30;;;;;;;2.63;95.57;93969.22;4388966;32;20371;-59
2021/12/09 02:33:50;;;;;;;3.37;3.17;;;;;;;2.55;95.73;93973.22;4387250;32;20284;-59
2021/12/09 02:36:16;;;;;;;3.70;3.50;;;;;;;2.64;95.76;93971.56;4387231;32;20348;-59
2021/12/09 02:38:44;;;;;;;3.43;3.33;;;;;;;2.51;96.14;93972.19;4381004;32;20276;-59
2021/12/09 02:41:16;;;;;;;3.30;3.17;;;;;;;2.42;96.71;93964.19;4390900;32;20185;-59
2021/12/09 02:43:44;;;;;;;3.03;2.93;;;;;;;2.67;95.75;93965.78;4391911;32;20280;-59
2021/12/09 02:46:10;;;;;;;3.50;3.30;;;;;;;2.60;95.66;93954.84;4388471;32;20279;-59
2021/12/09 02:48:36;;;;;;;3.77;3.57;;;;;;;2.67;95.88;93950.09;4363404;32;20285;-59
2021/12/09 02:51:04;;;;;;;4.00;3.80;;;;;;;2.51;95.96;93953.09;4375704;32;20277;-59
2021/12/09 02:53:29;;;;;;;3.53;3.37;;;;;;;2.72;95.40;93947.38;4383605;32;20210;-59
2021/12/09 02:55:54;;;;;;;4.40;4.03;;;;;;;2.80;95.23;93953.09;4385019;32;20292;-59
2021/12/09 02:58:20;;;;;;;4.00;3.80;;;;;;;2.68;95.41;93966.56;4380886;32;20189;-59
2021/12/09 03:01:08;;;;;;;3.77;3.57;;;;;;;2.75;95.28;93959.94;4386541;32;27754;-59
2021/12/09 03:03:33;;;;;;;4.17;3.97;;;;;;;2.78;95.01;93969.06;4382324;32;20200;-59
2021/12/09 03:06:00;;;;;;;4.60;4.30;;;;;;;2.78;94.88;93976.16;4378476;32;20292;-59
2021/12/09 03:08:37;;;;;;;4.27;4.00;;;;;;;2.81;95.03;93978.22;4391126;32;20192;-59
2021/12/09 03:11:05;;;;;;;4.10;3.90;;;;;;;2.74;94.92;93981.16;4388958;32;20311;-59
2021/12/09 03:13:31;;;;;;;4.93;4.67;;;;;;;2.69;95.60;93989.84;4379253;32;20292;-59
2021/12/09 03:15:56;;;;;;;3.90;3.70;;;;;;;2.74;95.63;94000.25;4386112;32;20353;-63
2021/12/09 03:18:21;;;;;;;4.40;4.20;;;;;;;2.65;95.13;93988.06;4397608;32;20214;-59
2021/12/09 03:20:46;;;;;;;4.23;4.03;;;;;;;2.54;95.36;93987.34;4381774;32;20185;-59
2021/12/09 03:23:12;;;;;;;5.13;4.83;;;;;;;2.69;95.22;93992.47;4390980;32;20231;-59
2021/12/09 03:25:37;;;;;;;4.57;4.37;;;;;;;2.65;95.35;93988.84;4382644;32;20192;-59
2021/12/09 03:28:03;;;;;;;4.90;4.50;;;;;;;2.68;95.03;93997.97;4387380;32;20192;-60
2021/12/09 03:30:28;;;;;;;4.93;4.63;;;;;;;2.79;94.71;94009.13;4391164;32;20192;-60
2021/12/09 03:32:56;;;;;;;5.60;5.30;;;;;;;2.68;95.20;94005.84;4381418;32;20219;-59
2021/12/09 03:35:22;;;;;;;5.03;4.73;;;;;;;2.60;95.44;94011.66;4386801;32;20207;-59
2021/12/09 03:37:48;;;;;;;4.87;4.57;;;;;;;2.45;96.10;94015.19;4385085;32;20276;-59
2021/12/09 03:40:14;;;;;;;4.87;4.57;;;;;;;2.51;95.75;94018.53;4385316;32;20241;-59
2021/12/09 03:42:41;;;;;;;5.00;4.70;;;;;;;2.49;95.92;94021.44;4379452;32;20348;-59
2021/12/09 03:45:07;;;;;;;5.47;5.13;;;;;;;2.62;95.75;94015.56;4377807;32;20294;-59
2021/12/09 03:47:34;;;;;;;5.37;5.03;;;;;;;2.54;95.76;94008.28;4374200;32;20360;-59
2021/12/09 03:49:59;;;;;;;5.53;5.23;;;;;;;2.78;95.25;94007.56;4379069;32;20338;-59
2021/12/09 03:52:26;;;;;;;5.47;5.17;;;;;;;2.73;95.01;94008.38;4381069;32;20368;-59
2021/12/09 03:54:52;;;;;;;5.27;4.90;;;;;;;2.67;95.36;94012.13;4382793;32;20219;-60
2021/12/09 03:57:18;;;;;;;5.47;5.07;;;;;;;2.65;95.19;94014.22;4386261;32;20272;-60
2021/12/09 03:59:44;;;;;;;6.17;5.77;;;;;;;2.75;94.96;94020.16;4379835;32;20288;-60
2021/12/09 04:02:11;;;;;;;5.30;5.00;;;;;;;2.66;95.22;94016.59;4373226;32;20260;-60
2021/12/09 04:04:37;;;;;;;5.73;5.33;;;;;;;2.56;95.62;94016.66;4379154;32;20227;-59
2021/12/09 04:07:03;;;;;;;5.50;5.20;;;;;;;2.44;96.36;94024.09;4377635;32;20283;-60
2021/12/09 04:09:29;;;;;;;5.13;4.83;;;;;;;2.28;96.94;94025.28;4383534;32;20262;-60
2021/12/09 04:11:54;;;;;;;5.97;5.57;;;;;;;2.45;97.17;94025.66;4390563;32;20280;-59
2021/12/09 04:14:20;;;;;;;5.70;5.40;;;;;;;2.64;95.71;94017.91;4377055;32;20249;-59
2021/12/09 04:16:48;;;;;;;5.87;5.40;;;;;;;2.61;95.50;94018.47;4372461;32;20184;-60
2021/12/09 04:19:14;;;;;;;6.03;5.63;;;;;;;2.72;95.33;94027.75;4380852;32;20319;-60
2021/12/09 04:21:42;;;;;;;6.40;6.00;;;;;;;2.64;95.82;94033.63;4389306;32;20272;-60
2021/12/09 04:24:09;;;;;;;5.87;5.50;;;;;;;2.43;96.26;94040.84;4383200;32;20363;-60
2021/12/09 04:26:36;;;;;;;5.47;5.17;;;;;;;2.35;96.85;94036.19;4384243;32;20289;-60
2021/12/09 04:29:04;;;;;;;6.30;5.90;;;;;;;2.37;96.50;94031.47;4374909;32;20348;-60
2021/12/09 04:31:29;;;;;;;6.40;6.00;;;;;;;2.41;97.24;94020.19;4377557;32;20403;-60
2021/12/09 04:33:55;;;;;;;6.13;5.83;;;;;;;2.66;96.26;94011.34;4377521;32;20311;-59
2021/12/09 04:36:21;;;;;;;5.23;4.93;;;;;;;2.80;95.38;94021.16;4381117;32;20204;-59
2021/12/09 04:38:48;;;;;;;5.90;5.60;;;;;;;2.82;94.67;94013.81;4375278;32;20375;-60
2021/12/09 04:41:15;;;;;;;5.93;5.57;;;;;;;2.66;95.51;94019.19;4385953;32;20265;-59
2021/12/09 04:43:42;;;;;;;6.20;5.80;;;;;;;2.79;94.92;94022.22;4381221;32;20277;-59
2021/12/09 04:46:09;;;;;;;6.43;5.97;;;;;;;2.87;94.87;94038.13;4382953;32;20272;-59
2021/12/09 04:48:34;;;;;;;5.77;5.30;;;;;;;2.79;94.54;94041.31;4380583;32;20343;-59
2021/12/09 04:50:59;;;;;;;6.03;5.63;;;;;;;2.70;95.17;94040.37;4377659;32;20287;-60
2021/12/09 04:53:25;;;;;;;6.20;5.80;;;;;;;2.68;95.42;94035.41;4385237;32;20205;-58
2021/12/09 04:55:50;;;;;;;6.43;6.03;;;;;;;2.75;95.13;94035.06;4381307;32;20182;-59
2021/12/09 04:58:15;;;;;;;6.17;5.77;;;;;;;2.68;95.36;94045.09;4385341;32;20211;-59
2021/12/09 05:00:41;;;;;;;6.17;5.67;;;;;;;2.83;94.95;94046.78;4384211;32;20184;-59
2021/12/09 05:03:10;;;;;;;5.77;5.37;;;;;;;2.80;94.96;94048.13;4381411;32;20196;-60
2021/12/09 05:05:44;;;;;;;6.37;5.97;;;;;;;2.91;94.22;94048.81;4379274;32;20192;-59
2021/12/09 05:08:14;;;;;;;6.20;5.80;;;;;;;2.77;95.06;94043.44;4389169;32;20276;-60
2021/12/09 05:11:32;;;;;;;6.00;5.60;;;;;;;2.83;94.81;94050.19;4381676;32;20299;-59
2021/12/09 05:13:36;;;;;;;6.53;6.10;;;;;;;2.74;94.80;94068.31;4372154;32;20276;-60
2021/12/09 05:16:04;;;;;;;5.87;5.47;;;;;;;2.64;95.31;94063.19;4387954;32;20322;-59
2021/12/09 05:18:32;;;;;;;6.70;6.20;;;;;;;2.73;95.56;94071.22;4388480;32;20296;-60
2021/12/09 05:20:58;;;;;;;6.90;6.30;;;;;;;2.67;95.33;94067.09;4384552;32;20285;-60
2021/12/09 05:23:24;;;;;;;6.77;6.27;;;;;;;2.68;95.46;94071.28;4386347;32;20288;-60
2021/12/09 05:25:50;;;;;;;6.77;6.33;;;;;;;2.54;95.85;94081.56;4382517;32;20207;-59
2021/12/09 05:28:17;;;;;;;6.43;6.03;;;;;;;2.60;95.81;94082.31;4389710;32;20269;-59
2021/12/09 05:33:28;;;;;;;6.13;5.73;;;;;;;2.72;95.75;94096.63;4388574;32;20314;-60
2021/12/09 05:35:55;;;;;;;6.30;5.80;;;;;;;2.67;95.81;94103.75;4385994;32;20359;-59
2021/12/09 05:38:20;;;;;;;5.90;5.50;;;;;;;2.60;96.08;94111.13;4389774;32;20209;-59
2021/12/09 05:40:47;;;;;;;6.10;5.70;;;;;;;2.57;96.00;94122.91;4390863;32;20296;-59
2021/12/09 05:43:14;;;;;;;5.90;5.50;;;;;;;2.68;95.84;94132.28;4384480;32;20227;-59
2021/12/09 05:45:41;;;;;;;6.47;6.03;;;;;;;2.62;95.81;94138.59;4384535;32;20299;-59
2021/12/09 05:48:07;;;;;;;6.50;6.00;;;;;;;2.72;95.74;94135.88;4389458;32;20292;-60
2021/12/09 05:50:34;;;;;;;5.63;5.23;;;;;;;2.63;96.06;94147.22;4389068;32;20321;-60
2021/12/09 05:52:59;;;;;;;5.90;5.50;;;;;;;2.76;95.51;94144.75;4386546;32;20268;-60
2021/12/09 05:55:25;;;;;;;5.70;5.37;;;;;;;2.61;95.77;94142.25;4393849;32;20295;-59
2021/12/09 05:57:50;;;;;;;5.37;5.07;;;;;;;2.81;95.54;94143.94;4384985;32;20208;-59
2021/12/09 06:00:17;;;;;;;4.97;4.67;;;;;;;2.71;95.42;94136.94;4384912;32;20198;-59
2021/12/09 06:02:42;;;;;;;5.50;5.20;;;;;;;2.66;96.13;94146.69;4381788;32;20208;-60
2021/12/09 06:05:07;;;;;;;6.10;5.17;;;;;;;2.78;95.70;94151.56;4389304;32;20272;-60
2021/12/09 06:07:33;;;;;;;5.83;5.43;;;;;;;2.82;95.61;94157.81;4390372;32;20232;-60
2021/12/09 06:10:00;;;;;;;5.63;5.23;;;;;;;2.93;94.65;94156.69;4386955;32;20197;-60
2021/12/09 06:12:26;;;;;;;5.47;5.13;;;;;;;2.72;95.25;94154.22;4390870;32;20176;-59
2021/12/09 06:14:52;;;;;;;5.43;5.03;;;;;;;2.84;95.36;94153.09;4378277;32;20281;-59
2021/12/09 06:17:17;;;;;;;5.87;5.47;;;;;;;2.70;95.31;94150.31;4390987;32;20330;-59
2021/12/09 06:19:42;;;;;;;5.10;4.80;;;;;;;2.69;95.45;94159.22;4384152;32;20224;-59
2021/12/09 06:22:08;;;;;;;4.83;4.53;;;;;;;2.66;95.68;94157.94;4387952;32;20210;-59
2021/12/09 06:24:33;;;;;;;4.83;4.53;;;;;;;2.65;95.73;94152.97;4379701;32;20228;-59
2021/12/09 06:26:59;;;;;;;5.43;5.07;;;;;;;2.86;95.45;94157.00;4381161;32;20184;-60
2021/12/09 06:29:24;;;;;;;5.20;4.90;;;;;;;2.72;95.22;94148.97;4390322;32;20219;-59
2021/12/09 06:31:50;;;;;;;4.73;4.43;;;;;;;2.57;96.28;94164.78;4386811;32;20332;-59
2021/12/09 06:34:15;;;;;;;4.70;4.40;;;;;;;2.72;96.01;94166.53;4384664;32;20248;-59
2021/12/09 06:36:42;;;;;;;4.80;4.50;;;;;;;2.72;95.59;94162.06;4382424;32;20236;-59
2021/12/09 06:39:08;;;;;;;4.57;4.27;;;;;;;2.78;95.54;94162.81;4382929;32;20189;-59
2021/12/09 06:41:34;;;;;;;4.07;3.83;;;;;;;2.66;95.49;94160.56;4378084;32;20335;-59
2021/12/09 06:43:59;;;;;;;4.43;4.03;;;;;;;2.63;95.87;94158.47;4379248;32;20284;-59
2021/12/09 06:46:25;;;;;;;4.27;3.97;;;;;;;2.67;96.04;94148.25;4379707;32;20291;-59
2021/12/09 06:48:51;;;;;;;4.17;3.97;;;;;;;2.65;96.19;94153.75;4385133;32;20191;-59
2021/12/09 06:51:16;;;;;;;4.63;4.33;;;;;;;2.74;95.80;94148.69;4382701;32;20222;-60
2021/12/09 06:53:43;;;;;;;32.03;4.90;;;;;;;2.45;96.58;94151.28;4384016;32;20280;-50
2021/12/09 06:56:08;;;;;;;10.57;4.57;;;;;;;7.11;100.00;94137.47;4376197;32;20182;-49
2021/12/09 06:58:34;;;;;;;2.80;2.60;;;;;;;8.22;100.00;94141.72;4379544;32;20283;-52
2021/12/09 07:01:00;;;;;;;2.20;2.00;;;;;;;9.05;82.83;94136.41;4380626;32;20177;-53
2021/12/09 07:03:27;;;;;;;2.03;1.90;;;;;;;9.62;73.18;94142.97;4384499;32;20300;-53
2021/12/09 07:05:53;;;;;;;1.47;1.47;;;;;;;10.07;67.26;94141.75;4378857;32;20295;-54
2021/12/09 07:08:19;;;;;;;1.80;1.70;;;;;;;10.41;66.59;94148.75;4383366;32;20260;-49
2021/12/09 07:10:45;;;;;;;1.90;1.80;;;;;;;10.71;64.16;94155.59;4381056;32;20264;-53
2021/12/09 07:13:11;;;;;;;1.63;1.53;;;;;;;10.77;62.35;94158.84;4383708;32;20302;-53
2021/12/09 07:15:37;;;;;;;1.50;1.40;;;;;;;11.21;61.45;94162.72;4381351;32;20197;-55
2021/12/09 07:18:03;;;;;;;1.70;1.60;;;;;;;11.24;60.63;94164.72;4386536;32;20266;-51
2021/12/09 07:20:30;;;;;;;2.60;1.50;;;;;;;11.22;60.06;94167.69;4381489;32;20189;-52
2021/12/09 07:22:57;;;;;;;1.70;1.60;;;;;;;11.23;59.50;94166.59;4385469;32;20188;-53
2021/12/09 07:25:24;;;;;;;1.70;1.60;;;;;;;11.01;59.31;94166.97;4389157;32;20201;-54
2021/12/09 07:27:50;;;;;;;1.30;1.20;;;;;;;11.28;59.04;94170.94;4378274;32;20189;-52
2021/12/09 07:30:17;;;;;;;1.50;1.40;;;;;;;11.23;58.42;94176.44;4382704;32;20176;-52
2021/12/09 07:32:43;;;;;;;1.23;1.13;;;;;;;11.05;58.82;94185.63;4383345;32;20181;-52
2021/12/09 07:35:09;;;;;;;1.77;1.17;;;;;;;11.10;59.07;94185.44;4385350;32;20250;-49
2021/12/09 07:37:37;;;;;;;1.10;1.10;;;;;;;11.23;58.52;94176.44;4386043;32;20194;-49
2021/12/09 07:40:06;;;;;;;1.17;1.17;;;;;;;11.03;58.96;94181.44;4381525;32;20269;-50
2021/12/09 07:42:31;;;;;;;1.60;1.17;;;;;;;11.11;58.69;94179.03;4389250;32;20188;-50
2021/12/09 07:44:57;;;;;;;1.80;1.70;;;;;;;10.87;57.84;94188.41;4374975;32;20203;-64
2021/12/09 07:47:22;;;;;;;1.90;1.80;;;;;;;8.66;63.51;94179.63;4386827;32;20185;-59
2021/12/09 07:49:47;;;;;;;1.80;1.70;;;;;;;7.09;70.29;94192.37;4374698;32;20177;-59
2021/12/09 07:52:13;;;;;;;1.93;1.83;;;;;;;5.47;76.80;94199.75;4386486;32;20232;-59
2021/12/09 07:54:38;;;;;;;2.00;1.77;;;;;;;4.82;81.27;94207.59;4386064;32;20184;-60
2021/12/09 07:57:04;;;;;;;1.97;1.87;;;;;;;4.14;84.86;94207.97;4372455;32;20254;-60
2021/12/09 07:59:29;;;;;;;2.27;2.17;;;;;;;3.54;88.37;94208.56;4380307;32;20199;-60
2021/12/09 08:01:55;;;;;;;2.50;2.40;;;;;;;3.63;89.05;94207.69;4378465;32;20192;-60
2021/12/09 08:04:20;;;;;;;2.50;2.40;;;;;;;3.50;89.59;94210.97;4389534;32;20239;-60
2021/12/09 08:06:46;;;;;;;3.03;2.80;;;;;;;3.41;90.98;94212.62;4381033;32;20223;-60
2021/12/09 08:09:11;;;;;;;3.07;2.87;;;;;;;3.16;91.87;94221.47;4385104;32;20184;-60
2021/12/09 08:11:38;;;;;;;2.50;2.40;;;;;;;2.99;92.78;94229.72;4376668;32;20206;-60
2021/12/09 08:14:05;;;;;;;3.83;3.00;;;;;;;2.96;93.33;94237.31;4375259;32;20248;-60
2021/12/09 08:16:37;;;;;;;2.80;2.70;;;;;;;2.74;94.70;94242.97;4386240;32;20389;-60
2021/12/09 08:19:04;;;;;;;3.27;3.07;;;;;;;2.81;94.82;94247.91;4380233;32;20264;-60
2021/12/09 08:21:33;;;;;;;2.57;2.37;;;;;;;2.83;94.92;94251.03;4381725;32;20322;-60
2021/12/09 08:23:59;;;;;;;3.40;3.20;;;;;;;2.68;95.02;94265.78;4381993;32;20373;-61
2021/12/09 08:26:25;;;;;;;3.03;2.83;;;;;;;2.66;95.66;94269.72;4376689;32;20284;-60
2021/12/09 08:28:50;;;;;;;3.60;3.30;;;;;;;2.58;96.04;94275.50;4373869;32;20248;-61
2021/12/09 08:31:16;;;;;;;2.83;2.63;;;;;;;2.62;96.48;94272.09;4385635;32;20207;-61
2021/12/09 08:33:41;;;;;;;3.47;3.27;;;;;;;2.91;95.57;94277.41;4381089;32;20193;-59
2021/12/09 08:36:07;;;;;;;3.57;3.27;;;;;;;2.74;95.43;94269.94;4376174;32;20192;-60
2021/12/09 08:38:32;;;;;;;3.23;2.93;;;;;;;2.84;95.51;94268.31;4386815;32;20249;-60
2021/12/09 08:40:58;;;;;;;2.90;2.70;;;;;;;2.95;95.45;94264.56;4382646;32;20189;-60
2021/12/09 08:43:24;;;;;;;2.97;2.77;;;;;;;2.94;94.75;94258.53;4382423;32;20193;-60
2021/12/09 08:45:51;;;;;;;3.30;3.00;;;;;;;3.07;94.55;94259.78;4380349;32;20285;-60
2021/12/09 08:48:16;;;;;;;3.20;3.00;;;;;;;3.11;93.87;94258.19;4381098;32;20218;-60
2021/12/09 08:50:44;;;;;;;3.30;3.10;;;;;;;3.17;94.03;94264.16;4382934;32;20284;-60
2021/12/09 08:53:13;;;;;;;3.30;3.00;;;;;;;3.00;94.00;94272.41;4384902;32;20184;-62
2021/12/09 08:55:40;;;;;;;3.40;3.10;;;;;;;2.95;94.68;94270.59;4376851;32;20292;-62
2021/12/09 08:58:06;;;;;;;2.97;2.73;;;;;;;3.07;94.22;94283.38;4384588;32;20280;-62
2021/12/09 09:00:33;;;;;;;3.20;3.00;;;;;;;3.20;93.70;94293.22;4381643;32;20308;-63
2021/12/09 09:02:59;;;;;;;2.60;2.43;;;;;;;3.10;93.35;94293.31;4382448;32;20311;-63
2021/12/09 09:05:27;;;;;;;2.80;2.60;;;;;;;2.96;94.15;94294.94;4387013;32;20289;-60
2021/12/09 09:07:53;;;;;;;3.27;2.97;;;;;;;3.00;94.19;94298.59;4384023;32;20283;-60
2021/12/09 09:10:22;;;;;;;3.00;2.80;;;;;;;3.07;93.85;94296.47;4384871;32;20365;-59
2021/12/09 09:12:49;;;;;;;2.47;2.37;;;;;;;3.37;92.55;94298.88;4375653;32;20284;-60
2021/12/09 09:15:16;;;;;;;2.93;2.73;;;;;;;3.15;93.00;94301.13;4389477;32;20335;-60
2021/12/09 09:17:42;;;;;;;3.00;2.80;;;;;;;3.14;93.64;94314.50;4385014;32;20304;-60
2021/12/09 09:20:10;;;;;;;2.93;2.73;;;;;;;3.28;92.86;94316.25;4382525;32;20307;-60
2021/12/09 09:22:37;;;;;;;3.07;2.87;;;;;;;3.11;93.22;94313.22;4374576;32;20297;-59
2021/12/09 09:25:04;;;;;;;2.90;2.70;;;;;;;3.06;93.57;94323.72;4375376;32;20285;-60
2021/12/09 09:27:29;;;;;;;3.40;2.63;;;;;;;2.96;94.18;94323.75;4385280;32;20299;-63
2021/12/09 09:29:54;;;;;;;2.97;2.77;;;;;;;3.21;93.50;94315.75;4388267;32;20281;-60
2021/12/09 09:32:20;;;;;;;3.37;3.07;;;;;;;3.28;93.11;94321.50;4391154;32;20203;-60
2021/12/09 09:34:45;;;;;;;3.00;2.77;;;;;;;3.06;93.61;94318.47;4386978;32;20264;-60
2021/12/09 09:37:11;;;;;;;3.50;3.17;;;;;;;3.14;93.40;94320.50;4386240;32;20200;-60
2021/12/09 09:39:41;;;;;;;3.17;2.97;;;;;;;3.22;93.98;94317.31;4377451;32;20197;-60
2021/12/09 09:44:48;;;;;;;3.47;3.17;;;;;;;3.39;92.81;94309.09;4386405;32;20330;-60
2021/12/09 09:47:16;;;;;;;3.30;3.10;;;;;;;3.30;93.32;94311.53;4380865;32;20336;-60
2021/12/09 09:49:42;;;;;;;3.37;3.27;;;;;;;3.52;93.01;94305.09;4380776;32;20284;-61
2021/12/09 09:52:09;;;;;;;4.27;4.00;;;;;;;3.38;92.71;94310.91;4384743;32;20294;-61
2021/12/09 09:54:39;;;;;;;3.63;3.37;;;;;;;3.38;92.37;94307.53;4378061;32;20253;-61
2021/12/09 09:57:06;;;;;;;4.30;4.00;;;;;;;3.59;91.71;94314.19;4378394;32;20317;-60
2021/12/09 09:59:32;;;;;;;4.27;3.97;;;;;;;3.69;91.53;94310.72;4388131;32;20351;-60
2021/12/09 10:01:57;;;;;;;4.40;4.10;;;;;;;3.64;91.42;94319.38;4383165;32;20288;-61
2021/12/09 10:04:44;;;;;;;4.43;4.13;;;;;;;3.61;92.13;94324.41;4380420;32;20181;-61
2021/12/09 10:07:11;;;;;;;5.13;4.80;;;;;;;3.41;92.48;94320.88;4380064;32;20203;-61
2021/12/09 10:09:37;;;;;;;4.97;4.57;;;;;;;3.44;92.89;94322.94;4380972;32;20295;-61
2021/12/09 10:12:02;;;;;;;5.80;5.33;;;;;;;3.58;92.42;94314.44;4384899;32;20273;-61
2021/12/09 10:14:34;;;;;;;5.77;5.37;;;;;;;3.37;92.46;94317.22;4374707;32;20221;-61
2021/12/09 10:17:04;;;;;;;6.77;6.07;;;;;;;3.62;91.72;94316.25;4387021;32;20255;-61
2021/12/09 10:19:30;;;;;;;6.40;5.90;;;;;;;3.67;91.33;94316.22;4384883;32;20273;-61
2021/12/09 10:22:13;;;;;;;6.40;6.00;;;;;;;3.41;92.27;94320.09;4383698;32;20276;-61
2021/12/09 10:24:40;;;;;;;6.20;5.60;;;;;;;3.36;92.47;94330.59;4366734;32;20276;-61
2021/12/09 10:27:08;;;;;;;6.10;5.60;;;;;;;3.48;93.10;94322.41;4382076;32;20261;-61
2021/12/09 10:29:42;;;;;;;6.50;6.10;;;;;;;3.73;91.80;94319.59;4386825;32;20325;-61
2021/12/09 10:32:12;;;;;;;7.07;6.47;;;;;;;3.64;91.89;94314.16;4379387;32;20350;-61
2021/12/09 10:34:41;;;;;;;6.73;6.20;;;;;;;3.75;91.25;94317.44;4384314;32;20269;-60
2021/12/09 10:37:13;;;;;;;6.73;5.83;;;;;;;3.83;90.65;94326.59;4378930;32;20284;-61
2021/12/09 10:39:38;;;;;;;7.03;6.43;;;;;;;3.77;91.34;94328.47;4383792;32;20276;-61
2021/12/09 10:42:10;;;;;;;6.87;6.10;;;;;;;3.84;91.08;94326.31;4387422;32;20452;-61
2021/12/09 10:45:02;;;;;;;8.53;7.53;;;;;;;3.56;91.49;94321.81;4388197;32;20192;-61
2021/12/09 10:50:35;;;;;;;7.07;6.47;;;;;;;3.69;91.54;94321.19;4377285;32;20295;-61
2021/12/09 10:53:58;;;;;;;7.33;6.53;;;;;;;3.88;90.49;94329.16;4379922;32;20276;-61
2021/12/09 10:56:03;;;;;;;6.13;5.70;;;;;;;3.72;91.12;94339.78;4383357;32;20280;-61
2021/12/09 10:58:32;;;;;;;7.23;5.90;;;;;;;3.77;90.96;94336.31;4376533;32;20300;-61
2021/12/09 11:01:06;;;;;;;6.57;5.83;;;;;;;3.98;89.99;94334.31;4380868;32;20293;-62
2021/12/09 11:03:37;;;;;;;6.87;6.33;;;;;;;3.91;89.33;94331.25;4372121;32;20276;-61
2021/12/09 11:06:11;;;;;;;7.13;6.10;;;;;;;3.83;90.80;94337.06;4380617;32;20349;-61
2021/12/09 11:08:40;;;;;;;7.07;5.93;;;;;;;3.96;90.16;94336.44;4380487;32;20268;-61
2021/12/09 11:11:28;;;;;;;7.50;6.60;;;;;;;3.85;90.54;94337.59;4384491;32;20393;-61
2021/12/09 11:13:59;;;;;;;6.80;6.20;;;;;;;3.85;90.27;94335.75;4374699;32;20288;-59
2021/12/09 11:16:32;;;;;;;8.17;6.27;;;;;;;3.83;90.88;94339.69;4388444;32;20302;-59
2021/12/09 11:19:10;;;;;;;6.33;5.73;;;;;;;3.66;91.21;94338.25;4385810;32;20273;-62
2021/12/09 11:21:40;;;;;;;5.60;5.10;;;;;;;3.70;91.47;94338.50;4380735;32;20273;-59
2021/12/09 11:24:10;;;;;;;6.37;5.03;;;;;;;3.84;90.67;94336.00;4386135;32;20289;-59
2021/12/09 11:26:48;;;;;;;6.00;5.40;;;;;;;3.90;90.14;94340.94;4382552;32;20269;-59
2021/12/09 11:29:27;;;;;;;5.73;5.23;;;;;;;3.97;90.25;94333.53;4385528;32;20272;-59
2021/12/09 11:34:53;;;;;;;5.10;4.70;;;;;;;4.07;89.57;94338.69;4381423;32;20346;-59
2021/12/09 11:40:27;;;;;;;5.90;4.87;;;;;;;4.10;89.08;94342.62;4383483;32;20276;-60
2021/12/09 11:42:58;;;;;;;6.63;4.63;;;;;;;3.88;90.06;94348.31;4374871;32;20300;-59
2021/12/09 11:45:27;;;;;;;6.63;5.13;;;;;;;3.83;90.77;94347.56;4384196;32;20299;-59
2021/12/09 11:47:54;;;;;;;5.67;4.70;;;;;;;3.79;90.42;94348.09;4371589;32;20285;-59
2021/12/09 11:50:23;;;;;;;5.53;4.10;;;;;;;3.96;90.25;94352.94;4373838;32;20327;-59
2021/12/09 11:52:53;;;;;;;5.30;4.37;;;;;;;4.00;90.36;94351.34;4380607;32;20300;-59
2021/12/09 11:55:21;;;;;;;6.93;5.23;;;;;;;3.75;91.22;94347.09;4379070;32;20280;-59
2021/12/09 11:58:32;;;;;;;5.80;4.13;;;;;;;3.81;91.26;94350.47;4373579;32;20311;-60